Time;durP1;ratioP1;P1;durP2;ratioP2;P2;SDS_P1;SDS_P2;PMS_P1;PMS_P2;Temp;Humidity;BMP_temperature;BMP_pressure;BME280_temperature;BME280_humidity;BME280_pressure;Samples;Min_cycle;Max_cycle;Signal;HPM_P1;HPM_P2
2021/12/01 00:00:20;;;;;;;;;;;;;;;;;;1017007;29;1375;-25
2021/12/01 00:00:51;;;;;;;;;;;;;;;;;;1017069;29;1286;-25
2021/12/01 00:01:25;;;;;;;;;;;;;;;;;;1017516;29;1007;-25
2021/12/01 00:01:56;;;;;;;;;;;;;;;;;;1016762;29;969;-24
2021/12/01 00:02:26;;;;;;;;;;;;;;;;;;1012726;29;1380;-25
2021/12/01 00:02:57;;;;;;;;;;;;;;;;;;1008785;29;991;-25
2021/12/01 00:03:28;;;;;;;;;;;;;;;;;;1008655;29;1360;-25
2021/12/01 00:04:00;;;;;;;;;;;;;;;;;;1012855;29;1051;-26
2021/12/01 00:04:31;;;;;;;;;;;;;;;;;;1004849;29;980;-25
2021/12/01 00:05:01;;;;;;;;;;;;;;;;;;1008294;29;1387;-25
2021/12/01 00:05:33;;;;;;;;;;;;;;;;;;1008661;29;1118;-24
2021/12/01 00:06:05;;;;;;;;;;;;;;;;;;1008941;29;1078;-25
2021/12/01 00:06:35;;;;;;;;;;;;;;;;;;1015897;29;1353;-25
2021/12/01 00:07:08;;;;;;;;;;;;;;;;;;1017023;29;995;-25
2021/12/01 00:07:41;;;;;;;;;;;;;;;;;;1016781;29;1329;-25
2021/12/01 00:08:11;;;;;;;;;;;;;;;;;;1016959;29;1020;-25
2021/12/01 00:08:42;;;;;;;;;;;;;;;;;;1016532;29;1049;-28
2021/12/01 00:09:13;;;;;;;;;;;;;;;;;;1016390;29;971;-25
2021/12/01 00:09:43;;;;;;;;;;;;;;;;;;1016979;29;904;-25
2021/12/01 00:10:14;;;;;;;;;;;;;;;;;;1016742;29;1019;-25
2021/12/01 00:10:46;;;;;;;;;;;;;;;;;;1017221;29;891;-26
2021/12/01 00:11:17;;;;;;;;;;;;;;;;;;1016776;29;1089;-25
2021/12/01 00:11:47;;;;;;;;;;;;;;;;;;1012149;29;971;-26
2021/12/01 00:12:18;;;;;;;;;;;;;;;;;;1010603;29;915;-26
2021/12/01 00:12:49;;;;;;;;;;;;;;;;;;1010981;29;1326;-25
2021/12/01 00:13:21;;;;;;;;;;;;;;;;;;1012921;29;1060;-25
2021/12/01 00:13:54;;;;;;;;;;;;;;;;;;1016135;29;1072;-25
2021/12/01 00:14:25;;;;;;;;;;;;;;;;;;1012788;29;1281;-25
2021/12/01 00:14:55;;;;;;;;;;;;;;;;;;1013292;29;1089;-25
2021/12/01 00:15:25;;;;;;;;;;;;;;;;;;1013455;29;1159;-25
2021/12/01 00:15:56;;;;;;;;;;;;;;;;;;1012710;29;1069;-25
2021/12/01 00:16:27;;;;;;;;;;;;;;;;;;1012442;29;1070;-24
2021/12/01 00:16:58;;;;;;;;;;;;;;;;;;1004360;29;1831;-25
2021/12/01 00:17:28;;;;;;;;;;;;;;;;;;1004989;29;1113;-25
2021/12/01 00:17:59;;;;;;;;;;;;;;;;;;1004723;29;1045;-25
2021/12/01 00:18:30;;;;;;;;;;;;;;;;;;1001044;29;1923;-25
2021/12/01 00:19:00;;;;;;;;;;;;;;;;;;1012613;29;1112;-26
2021/12/01 00:19:33;;;;;;;;;;;;;;;;;;1008789;29;1015;-25
2021/12/01 00:20:05;;;;;;;;;;;;;;;;;;1009251;29;1088;-24
2021/12/01 00:20:35;;;;;;;;;;;;;;;;;;1013218;29;951;-25
2021/12/01 00:21:06;;;;;;;;;;;;;;;;;;1005422;29;983;-25
2021/12/01 00:21:36;;;;;;;;;;;;;;;;;;1008639;29;1007;-25
2021/12/01 00:22:07;;;;;;;;;;;;;;;;;;1008944;29;1049;-25
2021/12/01 00:22:38;;;;;;;;;;;;;;;;;;1008590;29;938;-25
2021/12/01 00:23:09;;;;;;;;;;;;;;;;;;1012981;29;1010;-25
2021/12/01 00:23:43;;;;;;;;;;;;;;;;;;1008227;29;1348;-25
2021/12/01 00:24:13;;;;;;;;;;;;;;;;;;1008642;29;1108;-25
2021/12/01 00:24:44;;;;;;;;;;;;;;;;;;1009658;29;1164;-25
2021/12/01 00:25:18;;;;;;;;;;;;;;;;;;1008669;29;1113;-25
2021/12/01 00:25:48;;;;;;;;;;;;;;;;;;1008791;29;988;-25
2021/12/01 00:26:19;;;;;;;;;;;;;;;;;;1004458;29;1169;-25
2021/12/01 00:26:51;;;;;;;;;;;;;;;;;;1007025;29;1127;-26
2021/12/01 00:27:21;;;;;;;;;;;;;;;;;;1001059;29;994;-25
2021/12/01 00:27:52;;;;;;;;;;;;;;;;;;997232;29;1157;-25
2021/12/01 00:28:23;;;;;;;;;;;;;;;;;;1001240;29;1151;-26
2021/12/01 00:28:54;;;;;;;;;;;;;;;;;;1001420;29;1314;-25
2021/12/01 00:29:24;;;;;;;;;;;;;;;;;;1008910;29;1107;-27
2021/12/01 00:29:56;;;;;;;;;;;;;;;;;;1012360;29;1104;-25
2021/12/01 00:30:26;;;;;;;;;;;;;;;;;;1012845;29;1023;-26
2021/12/01 00:30:57;;;;;;;;;;;;;;;;;;1012792;29;966;-25
2021/12/01 00:31:28;;;;;;;;;;;;;;;;;;1013528;29;832;-25
2021/12/01 00:31:58;;;;;;;;;;;;;;;;;;1013579;29;963;-25
2021/12/01 00:32:29;;;;;;;;;;;;;;;;;;1013133;29;1145;-26
2021/12/01 00:33:02;;;;;;;;;;;;;;;;;;1013396;29;1172;-25
2021/12/01 00:33:34;;;;;;;;;;;;;;;;;;1013554;29;1076;-24
2021/12/01 00:34:05;;;;;;;;;;;;;;;;;;1008774;29;1066;-25
2021/12/01 00:34:36;;;;;;;;;;;;;;;;;;1008625;29;1253;-25
2021/12/01 00:35:07;;;;;;;;;;;;;;;;;;1008863;29;975;-25
2021/12/01 00:35:38;;;;;;;;;;;;;;;;;;1009023;29;1325;-25
2021/12/01 00:36:13;;;;;;;;;;;;;;;;;;1012489;29;1171;-26
2021/12/01 00:36:44;;;;;;;;;;;;;;;;;;1006021;29;1334;-25
2021/12/01 00:37:15;;;;;;;;;;;;;;;;;;1004429;29;1048;-25
2021/12/01 00:37:46;;;;;;;;;;;;;;;;;;1005250;29;948;-25
2021/12/01 00:38:16;;;;;;;;;;;;;;;;;;1001078;29;2353;-25
2021/12/01 00:38:47;;;;;;;;;;;;;;;;;;1005058;29;1029;-25
2021/12/01 00:39:18;;;;;;;;;;;;;;;;;;1013708;29;1217;-25
2021/12/01 00:39:48;;;;;;;;;;;;;;;;;;1009308;29;1251;-25
2021/12/01 00:40:19;;;;;;;;;;;;;;;;;;1013599;29;990;-26
2021/12/01 00:40:50;;;;;;;;;;;;;;;;;;1013820;29;1141;-24
2021/12/01 00:41:21;;;;;;;;;;;;;;;;;;1013103;29;1310;-25
2021/12/01 00:41:56;;;;;;;;;;;;;;;;;;1013965;29;1014;-25
2021/12/01 00:42:27;;;;;;;;;;;;;;;;;;1017173;29;1033;-25
2021/12/01 00:42:57;;;;;;;;;;;;;;;;;;1017319;29;1082;-25
2021/12/01 00:43:27;;;;;;;;;;;;;;;;;;1017314;29;990;-25
2021/12/01 00:43:58;;;;;;;;;;;;;;;;;;1009233;29;941;-25
2021/12/01 00:44:30;;;;;;;;;;;;;;;;;;1005450;29;1055;-26
2021/12/01 00:45:07;;;;;;;;;;;;;;;;;;1009553;29;927;-26
2021/12/01 00:45:39;;;;;;;;;;;;;;;;;;1011009;29;889;-26
2021/12/01 00:46:13;;;;;;;;;;;;;;;;;;1013562;29;1330;-25
2021/12/01 00:46:55;;;;;;;;;;;;;;;;;;1013893;29;1070;-25
2021/12/01 00:48:32;;;;;;;;;;;;;;;;;;998226;29;1330;-25
2021/12/01 00:49:03;;;;;;;;;;;;;;;;;;1001553;29;992;-25
2021/12/01 00:49:34;;;;;;;;;;;;;;;;;;1001744;29;979;-25
2021/12/01 00:50:06;;;;;;;;;;;;;;;;;;1002482;29;1042;-25
2021/12/01 00:50:37;;;;;;;;;;;;;;;;;;1001640;29;938;-25
2021/12/01 00:51:08;;;;;;;;;;;;;;;;;;1000472;29;1083;-26
2021/12/01 00:51:39;;;;;;;;;;;;;;;;;;997918;29;1056;-26
2021/12/01 00:52:10;;;;;;;;;;;;;;;;;;997967;29;992;-25
2021/12/01 00:52:40;;;;;;;;;;;;;;;;;;1002242;29;1093;-25
2021/12/01 00:53:11;;;;;;;;;;;;;;;;;;1005535;29;1017;-25
2021/12/01 00:53:42;;;;;;;;;;;;;;;;;;1005829;29;1044;-25
2021/12/01 00:54:13;;;;;;;;;;;;;;;;;;1009612;29;958;-25
2021/12/01 00:54:44;;;;;;;;;;;;;;;;;;1009790;29;965;-25
2021/12/01 00:55:14;;;;;;;;;;;;;;;;;;1009476;29;1032;-25
2021/12/01 00:55:46;;;;;;;;;;;;;;;;;;1014197;29;1392;-25
2021/12/01 00:56:16;;;;;;;;;;;;;;;;;;1016997;29;1044;-25
2021/12/01 00:56:49;;;;;;;;;;;;;;;;;;1017325;29;1062;-26
2021/12/01 00:57:20;;;;;;;;;;;;;;;;;;1013275;29;1162;-25
2021/12/01 00:57:51;;;;;;;;;;;;;;;;;;1013272;29;1160;-26
2021/12/01 00:58:22;;;;;;;;;;;;;;;;;;1013106;29;1911;-25
2021/12/01 00:58:52;;;;;;;;;;;;;;;;;;1013350;29;871;-25
2021/12/01 00:59:23;;;;;;;;;;;;;;;;;;1013507;29;964;-25
2021/12/01 00:59:53;;;;;;;;;;;;;;;;;;1012728;29;1410;-25
2021/12/01 01:00:26;;;;;;;;;;;;;;;;;;1014509;29;1014;-25
2021/12/01 01:00:58;;;;;;;;;;;;;;;;;;1013872;29;866;-25
2021/12/01 01:01:31;;;;;;;;;;;;;;;;;;1005413;29;1040;-25
2021/12/01 01:02:02;;;;;;;;;;;;;;;;;;1005946;29;1103;-25
2021/12/01 01:02:33;;;;;;;;;;;;;;;;;;1005160;29;1450;-24
2021/12/01 01:03:06;;;;;;;;;;;;;;;;;;1007008;29;1229;-25
2021/12/01 01:03:37;;;;;;;;;;;;;;;;;;1013849;29;1201;-25
2021/12/01 01:04:07;;;;;;;;;;;;;;;;;;1016896;29;1128;-26
2021/12/01 01:04:38;;;;;;;;;;;;;;;;;;1017662;29;1177;-25
2021/12/01 01:05:09;;;;;;;;;;;;;;;;;;1017082;29;994;-25
2021/12/01 01:05:40;;;;;;;;;;;;;;;;;;1017214;29;952;-25
2021/12/01 01:06:10;;;;;;;;;;;;;;;;;;1014021;29;1034;-24
2021/12/01 01:06:42;;;;;;;;;;;;;;;;;;1013774;29;1201;-25
2021/12/01 01:07:19;;;;;;;;;;;;;;;;;;1017182;29;1108;-25
2021/12/01 01:07:52;;;;;;;;;;;;;;;;;;1017192;29;1166;-25
2021/12/01 01:08:25;;;;;;;;;;;;;;;;;;1017324;29;1124;-25
2021/12/01 01:08:56;;;;;;;;;;;;;;;;;;1013121;29;983;-25
2021/12/01 01:09:31;;;;;;;;;;;;;;;;;;1013647;29;921;-25
2021/12/01 01:10:16;;;;;;;;;;;;;;;;;;1013422;29;1047;-25
2021/12/01 01:16:36;;;;;;;;;;;;;;;;;;1017306;29;1010;-25
2021/12/01 01:17:06;;;;;;;;;;;;;;;;;;1016951;29;1489;-24
2021/12/01 01:17:36;;;;;;;;;;;;;;;;;;1017147;29;1023;-25
2021/12/01 01:18:08;;;;;;;;;;;;;;;;;;1017851;29;1014;-25
2021/12/01 01:18:39;;;;;;;;;;;;;;;;;;1017250;29;1895;-25
2021/12/01 01:19:11;;;;;;;;;;;;;;;;;;1017785;29;969;-25
2021/12/01 01:19:42;;;;;;;;;;;;;;;;;;1013488;29;982;-26
2021/12/01 01:20:13;;;;;;;;;;;;;;;;;;1013117;29;1000;-25
2021/12/01 01:20:46;;;;;;;;;;;;;;;;;;1013525;29;967;-25
2021/12/01 01:21:17;;;;;;;;;;;;;;;;;;1013647;29;876;-25
2021/12/01 01:21:49;;;;;;;;;;;;;;;;;;1018209;29;1022;-25
2021/12/01 01:22:20;;;;;;;;;;;;;;;;;;1012990;29;1515;-25
2021/12/01 01:22:51;;;;;;;;;;;;;;;;;;1009496;29;1022;-25
2021/12/01 01:23:22;;;;;;;;;;;;;;;;;;1005181;29;1224;-25
2021/12/01 01:23:52;;;;;;;;;;;;;;;;;;1005384;29;1365;-24
2021/12/01 01:24:23;;;;;;;;;;;;;;;;;;1009032;29;1094;-25
2021/12/01 01:24:55;;;;;;;;;;;;;;;;;;1005786;29;1010;-24
2021/12/01 01:25:26;;;;;;;;;;;;;;;;;;1009534;29;1021;-25
2021/12/01 01:25:57;;;;;;;;;;;;;;;;;;1009897;29;1053;-26
2021/12/01 01:26:28;;;;;;;;;;;;;;;;;;1017098;29;1009;-25
2021/12/01 01:27:01;;;;;;;;;;;;;;;;;;1017528;29;932;-25
2021/12/01 01:27:32;;;;;;;;;;;;;;;;;;1017943;29;832;-25
2021/12/01 01:28:04;;;;;;;;;;;;;;;;;;1016682;29;1439;-25
2021/12/01 01:28:34;;;;;;;;;;;;;;;;;;1013063;29;1145;-25
2021/12/01 01:29:06;;;;;;;;;;;;;;;;;;1012970;29;1258;-26
2021/12/01 01:29:36;;;;;;;;;;;;;;;;;;1008751;29;1155;-26
2021/12/01 01:30:07;;;;;;;;;;;;;;;;;;1002079;29;967;-26
2021/12/01 01:30:39;;;;;;;;;;;;;;;;;;997664;29;1070;-25
2021/12/01 01:31:10;;;;;;;;;;;;;;;;;;994617;29;912;-26
2021/12/01 01:31:40;;;;;;;;;;;;;;;;;;1002269;29;908;-25
2021/12/01 01:32:11;;;;;;;;;;;;;;;;;;1009193;29;1013;-25
2021/12/01 01:32:41;;;;;;;;;;;;;;;;;;1013786;29;847;-25
2021/12/01 01:33:12;;;;;;;;;;;;;;;;;;1017723;29;899;-25
2021/12/01 01:33:42;;;;;;;;;;;;;;;;;;1018015;29;881;-26
2021/12/01 01:34:13;;;;;;;;;;;;;;;;;;1013127;29;947;-24
2021/12/01 01:34:44;;;;;;;;;;;;;;;;;;1013351;29;1089;-25
2021/12/01 01:35:15;;;;;;;;;;;;;;;;;;1009052;29;1003;-25
2021/12/01 01:35:45;;;;;;;;;;;;;;;;;;1009394;29;920;-25
2021/12/01 01:36:16;;;;;;;;;;;;;;;;;;1009256;29;968;-25
2021/12/01 01:36:47;;;;;;;;;;;;;;;;;;1009557;29;876;-25
2021/12/01 01:37:18;;;;;;;;;;;;;;;;;;1017079;29;1075;-25
2021/12/01 01:37:48;;;;;;;;;;;;;;;;;;1013211;29;904;-26
2021/12/01 01:38:19;;;;;;;;;;;;;;;;;;1012902;29;1987;-24
2021/12/01 01:38:50;;;;;;;;;;;;;;;;;;1009371;29;1082;-25
2021/12/01 01:39:22;;;;;;;;;;;;;;;;;;1009345;29;994;-25
2021/12/01 01:39:52;;;;;;;;;;;;;;;;;;1009028;29;1430;-26
2021/12/01 01:40:23;;;;;;;;;;;;;;;;;;1009764;29;1117;-25
2021/12/01 01:40:53;;;;;;;;;;;;;;;;;;1013298;29;1058;-25
2021/12/01 01:41:24;;;;;;;;;;;;;;;;;;1013129;29;796;-25
2021/12/01 01:41:56;;;;;;;;;;;;;;;;;;1013415;29;1266;-25
2021/12/01 01:42:26;;;;;;;;;;;;;;;;;;1004827;29;1320;-24
2021/12/01 01:42:58;;;;;;;;;;;;;;;;;;986379;30;1256;-25
2021/12/01 01:43:29;;;;;;;;;;;;;;;;;;982691;30;1193;-25
2021/12/01 01:43:59;;;;;;;;;;;;;;;;;;990124;29;1283;-26
2021/12/01 01:44:31;;;;;;;;;;;;;;;;;;998218;29;1182;-25
2021/12/01 01:45:02;;;;;;;;;;;;;;;;;;1009557;29;1177;-25
2021/12/01 01:45:34;;;;;;;;;;;;;;;;;;1017012;29;1033;-25
2021/12/01 01:46:04;;;;;;;;;;;;;;;;;;1017408;29;984;-25
2021/12/01 01:46:36;;;;;;;;;;;;;;;;;;1016815;29;1014;-25
2021/12/01 01:47:07;;;;;;;;;;;;;;;;;;1017304;29;971;-25
2021/12/01 01:47:46;;;;;;;;;;;;;;;;;;1012763;29;1352;-25
2021/12/01 01:48:18;;;;;;;;;;;;;;;;;;1013163;29;1612;-25
2021/12/01 01:48:55;;;;;;;;;;;;;;;;;;1008858;29;1200;-25
2021/12/01 01:50:20;;;;;;;;;;;;;;;;;;1011508;29;935;-25
2021/12/01 01:50:53;;;;;;;;;;;;;;;;;;1017720;29;885;-25
2021/12/01 01:51:25;;;;;;;;;;;;;;;;;;1012747;29;1101;-24
2021/12/01 01:51:58;;;;;;;;;;;;;;;;;;1012962;29;1057;-25
2021/12/01 01:52:29;;;;;;;;;;;;;;;;;;1005259;29;1016;-25
2021/12/01 01:53:01;;;;;;;;;;;;;;;;;;1006041;29;962;-25
2021/12/01 01:53:33;;;;;;;;;;;;;;;;;;1013322;29;1106;-25
2021/12/01 01:54:04;;;;;;;;;;;;;;;;;;1013800;29;1066;-25
2021/12/01 01:54:34;;;;;;;;;;;;;;;;;;1017397;29;1324;-25
2021/12/01 01:55:05;;;;;;;;;;;;;;;;;;1017854;29;1100;-25
2021/12/01 01:55:38;;;;;;;;;;;;;;;;;;1017544;29;1268;-25
2021/12/01 01:56:10;;;;;;;;;;;;;;;;;;1016949;29;1370;-26
2021/12/01 01:56:40;;;;;;;;;;;;;;;;;;1017257;29;930;-25
2021/12/01 01:57:11;;;;;;;;;;;;;;;;;;1013050;29;1008;-25
2021/12/01 01:57:43;;;;;;;;;;;;;;;;;;1013300;29;1706;-25
2021/12/01 01:58:16;;;;;;;;;;;;;;;;;;1016967;29;2007;-25
2021/12/01 01:58:47;;;;;;;;;;;;;;;;;;1012914;29;1202;-25
2021/12/01 01:59:19;;;;;;;;;;;;;;;;;;1005161;29;1110;-25
2021/12/01 01:59:49;;;;;;;;;;;;;;;;;;997653;29;1072;-25
2021/12/01 02:00:20;;;;;;;;;;;;;;;;;;997740;29;1004;-25
2021/12/01 02:00:52;;;;;;;;;;;;;;;;;;1002024;29;1021;-25
2021/12/01 02:01:58;;;;;;;;;;;;;;;;;;1009047;29;1201;-25
2021/12/01 02:02:31;;;;;;;;;;;;;;;;;;1009900;29;1315;-24
2021/12/01 02:03:02;;;;;;;;;;;;;;;;;;1005164;29;1122;-25
2021/12/01 02:03:37;;;;;;;;;;;;;;;;;;1007190;29;1121;-25
2021/12/01 02:04:08;;;;;;;;;;;;;;;;;;1013123;29;1113;-25
2021/12/01 02:04:39;;;;;;;;;;;;;;;;;;1014245;29;836;-25
2021/12/01 02:05:09;;;;;;;;;;;;;;;;;;1012703;29;1241;-25
2021/12/01 02:05:41;;;;;;;;;;;;;;;;;;1013215;29;1130;-25
2021/12/01 02:06:14;;;;;;;;;;;;;;;;;;1012974;29;1006;-24
2021/12/01 02:06:47;;;;;;;;;;;;;;;;;;1008332;29;1232;-25
2021/12/01 02:07:21;;;;;;;;;;;;;;;;;;1007842;29;903;-25
2021/12/01 02:07:53;;;;;;;;;;;;;;;;;;1008684;29;1279;-25
2021/12/01 02:08:31;;;;;;;;;;;;;;;;;;1010268;29;1083;-25
2021/12/01 02:09:02;;;;;;;;;;;;;;;;;;1012706;29;1255;-25
2021/12/01 02:09:36;;;;;;;;;;;;;;;;;;1008964;29;995;-25
2021/12/01 02:10:08;;;;;;;;;;;;;;;;;;1009284;29;1108;-25
2021/12/01 02:10:38;;;;;;;;;;;;;;;;;;1010562;29;1403;-25
2021/12/01 02:11:10;;;;;;;;;;;;;;;;;;1013167;29;1383;-25
2021/12/01 02:11:41;;;;;;;;;;;;;;;;;;1013109;29;1224;-25
2021/12/01 02:12:12;;;;;;;;;;;;;;;;;;1012947;29;1017;-25
2021/12/01 02:12:42;;;;;;;;;;;;;;;;;;1013094;29;1012;-25
2021/12/01 02:13:13;;;;;;;;;;;;;;;;;;1013226;29;1011;-25
2021/12/01 02:13:44;;;;;;;;;;;;;;;;;;1017770;29;1430;-26
2021/12/01 02:14:16;;;;;;;;;;;;;;;;;;1017018;29;1405;-25
2021/12/01 02:14:49;;;;;;;;;;;;;;;;;;1012702;29;1167;-24
2021/12/01 02:15:19;;;;;;;;;;;;;;;;;;1013339;29;1056;-25
2021/12/01 02:15:51;;;;;;;;;;;;;;;;;;1005438;29;1151;-24
2021/12/01 02:16:22;;;;;;;;;;;;;;;;;;1008948;29;1149;-26
2021/12/01 02:16:53;;;;;;;;;;;;;;;;;;1008985;29;909;-25
2021/12/01 02:17:24;;;;;;;;;;;;;;;;;;1009794;29;911;-25
2021/12/01 02:17:56;;;;;;;;;;;;;;;;;;1012955;29;1139;-25
2021/12/01 02:18:30;;;;;;;;;;;;;;;;;;1012521;29;1923;-25
2021/12/01 02:19:00;;;;;;;;;;;;;;;;;;1013190;29;1045;-25
2021/12/01 02:19:30;;;;;;;;;;;;;;;;;;1013181;29;1010;-25
2021/12/01 02:20:01;;;;;;;;;;;;;;;;;;1013683;29;1057;-25
2021/12/01 02:20:32;;;;;;;;;;;;;;;;;;1014023;29;1260;-25
2021/12/01 02:21:04;;;;;;;;;;;;;;;;;;1013504;29;946;-25
2021/12/01 02:21:35;;;;;;;;;;;;;;;;;;1013816;29;1143;-25
2021/12/01 02:22:05;;;;;;;;;;;;;;;;;;1013849;29;1077;-25
2021/12/01 02:22:36;;;;;;;;;;;;;;;;;;1013729;29;1078;-25
2021/12/01 02:23:07;;;;;;;;;;;;;;;;;;1008968;29;872;-25
2021/12/01 02:23:47;;;;;;;;;;;;;;;;;;1009350;29;892;-25
2021/12/01 02:24:19;;;;;;;;;;;;;;;;;;1009230;29;830;-25
2021/12/01 02:24:50;;;;;;;;;;;;;;;;;;1010717;29;975;-26
2021/12/01 02:25:24;;;;;;;;;;;;;;;;;;1012663;29;1260;-26
2021/12/01 02:25:56;;;;;;;;;;;;;;;;;;1013025;29;1086;-25
2021/12/01 02:26:30;;;;;;;;;;;;;;;;;;1008703;29;1091;-25
2021/12/01 02:27:06;;;;;;;;;;;;;;;;;;1005047;29;1170;-25
2021/12/01 02:27:36;;;;;;;;;;;;;;;;;;1005320;29;986;-23
2021/12/01 02:28:07;;;;;;;;;;;;;;;;;;1004906;29;1951;-25
2021/12/01 02:28:40;;;;;;;;;;;;;;;;;;1005514;29;1043;-25
2021/12/01 02:29:13;;;;;;;;;;;;;;;;;;1009189;29;1234;-25
2021/12/01 02:29:43;;;;;;;;;;;;;;;;;;1006325;29;976;-25
2021/12/01 02:30:14;;;;;;;;;;;;;;;;;;1012945;29;1071;-25
2021/12/01 02:30:45;;;;;;;;;;;;;;;;;;1004972;29;1066;-25
2021/12/01 02:31:19;;;;;;;;;;;;;;;;;;1005214;29;1189;-25
2021/12/01 02:31:50;;;;;;;;;;;;;;;;;;1001209;29;1074;-26
2021/12/01 02:32:21;;;;;;;;;;;;;;;;;;998343;29;1123;-25
2021/12/01 02:32:52;;;;;;;;;;;;;;;;;;1001425;29;990;-25
2021/12/01 02:33:23;;;;;;;;;;;;;;;;;;1005208;29;962;-25
2021/12/01 02:33:53;;;;;;;;;;;;;;;;;;1005190;29;1001;-26
2021/12/01 02:34:24;;;;;;;;;;;;;;;;;;1001190;29;1543;-24
2021/12/01 02:34:55;;;;;;;;;;;;;;;;;;1001477;29;1206;-25
2021/12/01 02:35:26;;;;;;;;;;;;;;;;;;1005271;29;1113;-25
2021/12/01 02:35:56;;;;;;;;;;;;;;;;;;1001079;29;1226;-25
2021/12/01 02:36:27;;;;;;;;;;;;;;;;;;1005051;29;973;-25
2021/12/01 02:36:58;;;;;;;;;;;;;;;;;;1005615;29;1106;-25
2021/12/01 02:37:29;;;;;;;;;;;;;;;;;;1013313;29;1170;-26
2021/12/01 02:38:01;;;;;;;;;;;;;;;;;;1017581;29;976;-26
2021/12/01 02:38:32;;;;;;;;;;;;;;;;;;1016599;29;1906;-24
2021/12/01 02:39:05;;;;;;;;;;;;;;;;;;1016294;29;1136;-25
2021/12/01 02:39:38;;;;;;;;;;;;;;;;;;1013434;29;1059;-25
2021/12/01 02:40:09;;;;;;;;;;;;;;;;;;1011866;29;1232;-25
2021/12/01 02:40:40;;;;;;;;;;;;;;;;;;1009319;29;1026;-25
2021/12/01 02:41:11;;;;;;;;;;;;;;;;;;1005143;29;1491;-24
2021/12/01 02:41:43;;;;;;;;;;;;;;;;;;1002613;29;1019;-25
2021/12/01 02:42:17;;;;;;;;;;;;;;;;;;1009274;29;1082;-25
2021/12/01 02:42:48;;;;;;;;;;;;;;;;;;1009951;29;906;-26
2021/12/01 02:43:23;;;;;;;;;;;;;;;;;;1013345;29;965;-25
2021/12/01 02:43:54;;;;;;;;;;;;;;;;;;1013640;29;1232;-25
2021/12/01 02:44:25;;;;;;;;;;;;;;;;;;1013568;29;1022;-25
2021/12/01 02:44:59;;;;;;;;;;;;;;;;;;1013868;29;954;-25
2021/12/01 02:45:30;;;;;;;;;;;;;;;;;;1012232;29;1443;-26
2021/12/01 02:46:01;;;;;;;;;;;;;;;;;;1012997;29;967;-26
2021/12/01 02:46:32;;;;;;;;;;;;;;;;;;1004833;29;1007;-25
2021/12/01 02:47:03;;;;;;;;;;;;;;;;;;1005558;29;1118;-25
2021/12/01 02:47:35;;;;;;;;;;;;;;;;;;1009039;29;1138;-25
2021/12/01 02:48:06;;;;;;;;;;;;;;;;;;1008657;29;1235;-26
2021/12/01 02:48:41;;;;;;;;;;;;;;;;;;1013291;29;1151;-25
2021/12/01 02:49:12;;;;;;;;;;;;;;;;;;1005024;29;1004;-25
2021/12/01 02:49:43;;;;;;;;;;;;;;;;;;1005285;29;1204;-26
2021/12/01 02:50:14;;;;;;;;;;;;;;;;;;1006174;29;923;-24
2021/12/01 02:50:44;;;;;;;;;;;;;;;;;;1008977;29;875;-26
2021/12/01 02:51:17;;;;;;;;;;;;;;;;;;1013179;29;1015;-26
2021/12/01 02:51:53;;;;;;;;;;;;;;;;;;1012456;29;1309;-26
2021/12/01 02:52:24;;;;;;;;;;;;;;;;;;1012979;29;959;-25
2021/12/01 02:52:54;;;;;;;;;;;;;;;;;;1012958;29;1255;-25
2021/12/01 02:53:25;;;;;;;;;;;;;;;;;;1012728;29;1306;-25
2021/12/01 02:53:55;;;;;;;;;;;;;;;;;;1013593;29;1089;-25
2021/12/01 02:54:33;;;;;;;;;;;;;;;;;;1016850;29;1397;-25
2021/12/01 02:55:07;;;;;;;;;;;;;;;;;;1017089;29;994;-25
2021/12/01 02:55:40;;;;;;;;;;;;;;;;;;1016304;29;1246;-25
2021/12/01 02:56:11;;;;;;;;;;;;;;;;;;1013061;29;1073;-25
2021/12/01 02:56:45;;;;;;;;;;;;;;;;;;1012742;29;931;-25
2021/12/01 02:57:16;;;;;;;;;;;;;;;;;;1013233;29;1041;-25
2021/12/01 02:57:47;;;;;;;;;;;;;;;;;;1009092;29;1094;-25
2021/12/01 02:58:18;;;;;;;;;;;;;;;;;;1008392;29;1982;-25
2021/12/01 02:58:52;;;;;;;;;;;;;;;;;;1009294;29;1007;-25
2021/12/01 02:59:23;;;;;;;;;;;;;;;;;;1009659;29;888;-25
2021/12/01 02:59:54;;;;;;;;;;;;;;;;;;1013702;29;925;-25
2021/12/01 03:00:25;;;;;;;;;;;;;;;;;;1013371;29;1066;-25
2021/12/01 03:00:57;;;;;;;;;;;;;;;;;;1012719;29;887;-25
2021/12/01 03:01:47;;;;;;;;;;;;;;;;;;1013061;29;1068;-25
2021/12/01 03:02:18;;;;;;;;;;;;;;;;;;1005070;29;1243;-24
2021/12/01 03:02:49;;;;;;;;;;;;;;;;;;1008617;29;1364;-25
2021/12/01 03:03:20;;;;;;;;;;;;;;;;;;1013454;29;1086;-25
2021/12/01 03:03:50;;;;;;;;;;;;;;;;;;1013134;29;1250;-25
2021/12/01 03:04:21;;;;;;;;;;;;;;;;;;1013344;29;868;-26
2021/12/01 03:05:03;;;;;;;;;;;;;;;;;;1013968;29;981;-25
2021/12/01 03:05:34;;;;;;;;;;;;;;;;;;1008378;29;1244;-25
2021/12/01 03:06:05;;;;;;;;;;;;;;;;;;1008891;29;1015;-26
2021/12/01 03:06:36;;;;;;;;;;;;;;;;;;1008801;29;1326;-25
2021/12/01 03:07:07;;;;;;;;;;;;;;;;;;1008900;29;1034;-25
2021/12/01 03:07:40;;;;;;;;;;;;;;;;;;1013921;29;1377;-25
2021/12/01 03:08:11;;;;;;;;;;;;;;;;;;1013645;29;1066;-25
2021/12/01 03:08:42;;;;;;;;;;;;;;;;;;1008635;29;1130;-25
2021/12/01 03:09:14;;;;;;;;;;;;;;;;;;1009066;29;929;-25
2021/12/01 03:09:44;;;;;;;;;;;;;;;;;;1008948;29;959;-25
2021/12/01 03:10:15;;;;;;;;;;;;;;;;;;1005862;29;934;-25
2021/12/01 03:10:48;;;;;;;;;;;;;;;;;;1008679;29;1466;-25
2021/12/01 03:11:18;;;;;;;;;;;;;;;;;;1009036;29;1031;-25
2021/12/01 03:11:49;;;;;;;;;;;;;;;;;;1009003;29;997;-24
2021/12/01 03:12:20;;;;;;;;;;;;;;;;;;1013136;29;1196;-25
2021/12/01 03:12:50;;;;;;;;;;;;;;;;;;1013446;29;1065;-25
2021/12/01 03:13:22;;;;;;;;;;;;;;;;;;1013433;29;1109;-25
2021/12/01 03:13:53;;;;;;;;;;;;;;;;;;1013786;29;994;-25
2021/12/01 03:14:23;;;;;;;;;;;;;;;;;;1013453;29;1172;-25
2021/12/01 03:14:54;;;;;;;;;;;;;;;;;;1014969;29;1356;-25
2021/12/01 03:15:25;;;;;;;;;;;;;;;;;;1016887;29;1089;-25
2021/12/01 03:15:56;;;;;;;;;;;;;;;;;;1016610;29;1189;-25
2021/12/01 03:16:26;;;;;;;;;;;;;;;;;;1016506;29;1074;-24
2021/12/01 03:16:57;;;;;;;;;;;;;;;;;;1013005;29;1048;-26
2021/12/01 03:17:28;;;;;;;;;;;;;;;;;;1012773;29;1054;-25
2021/12/01 03:18:00;;;;;;;;;;;;;;;;;;1012966;29;1688;-25
2021/12/01 03:18:30;;;;;;;;;;;;;;;;;;1013329;29;1911;-26
2021/12/01 03:19:01;;;;;;;;;;;;;;;;;;1016963;29;1123;-26
2021/12/01 03:19:32;;;;;;;;;;;;;;;;;;1017029;29;1054;-25
2021/12/01 03:20:03;;;;;;;;;;;;;;;;;;1016548;29;871;-25
2021/12/01 03:20:34;;;;;;;;;;;;;;;;;;1012928;29;1024;-26
2021/12/01 03:21:05;;;;;;;;;;;;;;;;;;1009118;29;949;-25
2021/12/01 03:21:36;;;;;;;;;;;;;;;;;;1012946;29;1024;-25
2021/12/01 03:22:11;;;;;;;;;;;;;;;;;;1012817;29;925;-25
2021/12/01 03:22:42;;;;;;;;;;;;;;;;;;1017598;29;1476;-25
2021/12/01 03:23:13;;;;;;;;;;;;;;;;;;1020245;29;1231;-25
2021/12/01 03:23:44;;;;;;;;;;;;;;;;;;1017364;29;899;-25
2021/12/01 03:24:17;;;;;;;;;;;;;;;;;;1017568;29;1122;-25
2021/12/01 03:24:48;;;;;;;;;;;;;;;;;;1017542;29;911;-25
2021/12/01 03:25:19;;;;;;;;;;;;;;;;;;1008804;29;973;-25
2021/12/01 03:25:51;;;;;;;;;;;;;;;;;;1005288;29;1048;-25
2021/12/01 03:26:22;;;;;;;;;;;;;;;;;;1004566;29;1014;-25
2021/12/01 03:26:52;;;;;;;;;;;;;;;;;;993681;29;1226;-26
2021/12/01 03:27:23;;;;;;;;;;;;;;;;;;1001222;29;1129;-25
2021/12/01 03:27:53;;;;;;;;;;;;;;;;;;1005110;29;1190;-24
2021/12/01 03:28:24;;;;;;;;;;;;;;;;;;1005175;29;1106;-25
2021/12/01 03:28:57;;;;;;;;;;;;;;;;;;1016996;29;1300;-25
2021/12/01 03:29:27;;;;;;;;;;;;;;;;;;1016575;29;1198;-25
2021/12/01 03:29:57;;;;;;;;;;;;;;;;;;1017102;29;1108;-25
2021/12/01 03:30:33;;;;;;;;;;;;;;;;;;1013072;29;1019;-25
2021/12/01 03:31:06;;;;;;;;;;;;;;;;;;1012591;29;1605;-25
2021/12/01 03:31:36;;;;;;;;;;;;;;;;;;1013127;29;919;-25
2021/12/01 03:32:08;;;;;;;;;;;;;;;;;;1009622;29;945;-26
2021/12/01 03:32:39;;;;;;;;;;;;;;;;;;1012959;29;1061;-26
2021/12/01 03:33:11;;;;;;;;;;;;;;;;;;1017010;29;956;-25
2021/12/01 03:33:43;;;;;;;;;;;;;;;;;;1016458;29;1305;-25
2021/12/01 03:34:13;;;;;;;;;;;;;;;;;;1017329;29;977;-25
2021/12/01 03:34:44;;;;;;;;;;;;;;;;;;1021072;29;1228;-25
2021/12/01 03:35:18;;;;;;;;;;;;;;;;;;1012284;29;1489;-25
2021/12/01 03:35:50;;;;;;;;;;;;;;;;;;1013112;29;1094;-25
2021/12/01 03:36:21;;;;;;;;;;;;;;;;;;1011538;29;1454;-24
2021/12/01 03:36:52;;;;;;;;;;;;;;;;;;1013114;29;1071;-25
2021/12/01 03:37:25;;;;;;;;;;;;;;;;;;1017429;29;1009;-25
2021/12/01 03:37:56;;;;;;;;;;;;;;;;;;1012589;29;1112;-25
2021/12/01 03:38:32;;;;;;;;;;;;;;;;;;1012875;29;1915;-25
2021/12/01 03:39:03;;;;;;;;;;;;;;;;;;1004730;29;1431;-25
2021/12/01 03:39:33;;;;;;;;;;;;;;;;;;1005751;29;1253;-24
2021/12/01 03:40:05;;;;;;;;;;;;;;;;;;1012896;29;1145;-25
2021/12/01 03:40:35;;;;;;;;;;;;;;;;;;1013203;29;1548;-25
2021/12/01 03:41:06;;;;;;;;;;;;;;;;;;1017311;29;1109;-25
2021/12/01 03:41:36;;;;;;;;;;;;;;;;;;1017282;29;1484;-25
2021/12/01 03:42:07;;;;;;;;;;;;;;;;;;1017460;29;1148;-25
2021/12/01 03:42:37;;;;;;;;;;;;;;;;;;1017410;29;1187;-25
2021/12/01 03:43:08;;;;;;;;;;;;;;;;;;1020613;29;1170;-25
2021/12/01 03:43:39;;;;;;;;;;;;;;;;;;1016726;29;1426;-25
2021/12/01 03:44:10;;;;;;;;;;;;;;;;;;1008779;29;1161;-24
2021/12/01 03:44:41;;;;;;;;;;;;;;;;;;1004606;29;1088;-25
2021/12/01 03:45:13;;;;;;;;;;;;;;;;;;1001222;29;1103;-25
2021/12/01 03:45:43;;;;;;;;;;;;;;;;;;1004769;29;1411;-25
2021/12/01 03:46:13;;;;;;;;;;;;;;;;;;1008806;29;1185;-25
2021/12/01 03:46:44;;;;;;;;;;;;;;;;;;1017567;29;991;-25
2021/12/01 03:47:15;;;;;;;;;;;;;;;;;;1015958;29;1418;-24
2021/12/01 03:47:45;;;;;;;;;;;;;;;;;;1016895;29;1188;-25
2021/12/01 03:48:16;;;;;;;;;;;;;;;;;;1016445;29;1319;-25
2021/12/01 03:48:47;;;;;;;;;;;;;;;;;;1008518;29;1089;-26